Tulip, Indiana
Current Conditions -  °F | °C
As of 10:53 AM on Saturday 25 Oct 2014 (Local Time) from KBMG Reporting Station
Overcast Overcast  
Wind Chill: 61°   Ceiling: 1100
Heat Index: 61°   Visibility: 7mi
Dew Point: 55°   Wind: 5mph
Humidity: 81%   Direction: NA
Pressure: 30.01"   Gusts: NA
Location:  39.0306°N, 86.8553°W
Report Text: KBMG 251453Z VRB04KT 7SM OVC011 16/13 A3001 RMK AO2 SLP160 T01610128 51008
Loading
Personal Weather Stations






























Interactive Weather Map
Tropical Storm Tracking
New forecast layout! Learn more

10-Day Weather Forecast

Advertisements
Track Severe Weather on mobile